createdAt,value
2018-11-01T00:00:52.190Z,9.56
2018-11-01T00:06:47.204Z,8.54
2018-11-01T00:12:42.165Z,7.98
2018-11-01T00:18:37.160Z,7.84
2018-11-01T00:24:32.171Z,6.75
2018-11-01T00:30:27.206Z,6.28
2018-11-01T00:36:22.182Z,5.96
2018-11-01T00:42:17.175Z,3.09
2018-11-01T00:48:12.177Z,2.36
2018-11-01T00:54:07.212Z,2.04
2018-11-01T01:00:02.185Z,1.92
2018-11-01T01:05:57.197Z,2.13
2018-11-01T01:11:52.201Z,2.56
2018-11-01T01:17:47.217Z,2.45
2018-11-01T01:23:42.240Z,2.04
2018-11-01T01:29:37.245Z,2.04
2018-11-01T01:35:32.203Z,1.89
2018-11-01T01:41:27.224Z,2.38
2018-11-01T01:47:22.241Z,2.26
2018-11-01T01:53:17.225Z,2.37
2018-11-01T01:59:12.219Z,2.29
2018-11-01T02:05:07.258Z,3.16
2018-11-01T02:11:02.245Z,2.5
2018-11-01T02:16:57.266Z,2.94
2018-11-01T02:22:52.279Z,2
2018-11-01T02:28:47.260Z,2.71
2018-11-01T02:34:42.271Z,2.72
2018-11-01T02:40:37.255Z,3.57
2018-11-01T02:46:32.516Z,2.36
2018-11-01T02:52:28.464Z,2.93
2018-11-01T02:58:22.263Z,2.73
2018-11-01T03:04:17.296Z,3.43
2018-11-01T03:10:12.289Z,3.66
2018-11-01T03:16:07.302Z,3.92
2018-11-01T03:22:02.510Z,4
2018-11-01T03:27:57.271Z,4.39
2018-11-01T03:33:53.501Z,4.05
2018-11-01T03:39:47.331Z,3.86
2018-11-01T03:45:42.382Z,4.13
2018-11-01T03:51:37.377Z,3.95
2018-11-01T03:57:32.326Z,4.38
2018-11-01T04:03:27.356Z,3.79
2018-11-01T04:09:22.316Z,4.68
2018-11-01T04:15:17.397Z,3.07
2018-11-01T04:21:12.338Z,3.27
2018-11-01T04:27:07.325Z,2.97
2018-11-01T04:33:02.384Z,3.31
2018-11-01T04:38:57.336Z,2.82
2018-11-01T04:44:52.350Z,3.18
2018-11-01T04:50:47.323Z,3.55
2018-11-01T04:56:42.352Z,3.8
2018-11-01T05:02:37.361Z,3.1
2018-11-01T05:08:32.358Z,3.24
2018-11-01T05:14:27.363Z,3.27
2018-11-01T05:20:22.426Z,3.3
2018-11-01T05:26:17.384Z,2.85
2018-11-01T05:32:12.368Z,2.88
2018-11-01T05:38:07.478Z,2.55
2018-11-01T05:44:02.378Z,3.48
2018-11-01T05:49:57.417Z,2.54
2018-11-01T05:55:52.388Z,2.91
2018-11-01T06:01:47.431Z,3.66
2018-11-01T06:07:42.470Z,4.14
2018-11-01T06:13:37.407Z,4.77
2018-11-01T06:19:32.400Z,4.44
2018-11-01T06:25:27.424Z,4.7
2018-11-01T06:31:22.449Z,4.93
2018-11-01T06:37:17.401Z,4.67
2018-11-01T06:43:12.430Z,3.77
2018-11-01T06:49:07.421Z,4.47
2018-11-01T06:55:02.444Z,3.78
2018-11-01T07:00:57.435Z,2.65
2018-11-01T07:06:52.424Z,2.97
2018-11-01T07:12:47.437Z,2.84
2018-11-01T07:18:42.490Z,2.87
2018-11-01T07:24:37.423Z,2.43
2018-11-01T07:30:32.479Z,2.42
2018-11-01T07:36:27.459Z,2.43
2018-11-01T07:42:22.491Z,2.59
2018-11-01T07:48:17.493Z,3.27
2018-11-01T07:54:12.485Z,2.86
2018-11-01T08:00:07.497Z,3.83
2018-11-01T08:06:02.676Z,3.04
2018-11-01T08:11:57.460Z,2.57
2018-11-01T08:17:52.496Z,2.86
2018-11-01T08:23:47.500Z,2.83
2018-11-01T08:29:42.505Z,2.85
2018-11-01T08:35:37.481Z,2.83
2018-11-01T08:41:32.482Z,2.98
2018-11-01T08:47:27.526Z,3.46
2018-11-01T08:53:22.500Z,5.71
2018-11-01T08:59:17.513Z,4.17
2018-11-01T09:05:12.515Z,4.74
2018-11-01T09:11:07.509Z,5.5
2018-11-01T09:17:02.501Z,6.12
2018-11-01T09:22:57.546Z,5.3
2018-11-01T09:28:52.541Z,7.71
2018-11-01T09:34:47.570Z,10.74
2018-11-01T09:40:42.526Z,12.8
2018-11-01T09:46:37.841Z,13.09
2018-11-01T09:52:32.538Z,13.42
2018-11-01T09:58:27.548Z,12.9
2018-11-01T10:04:22.541Z,11.94
2018-11-01T10:10:17.545Z,10.79
2018-11-01T10:16:12.670Z,30.91
2018-11-01T10:22:07.718Z,11.72
2018-11-01T10:28:02.552Z,12.14
2018-11-01T10:33:57.705Z,12
2018-11-01T10:39:52.587Z,12.69
2018-11-01T10:45:47.571Z,13.05
2018-11-01T10:51:42.627Z,15.26
2018-11-01T10:57:37.604Z,14.67
2018-11-01T11:03:32.577Z,12.74
2018-11-01T11:09:27.603Z,7.04
2018-11-01T11:15:22.579Z,3.95
2018-11-01T11:21:17.728Z,2.38
2018-11-01T11:27:12.606Z,2.67
2018-11-01T11:33:07.603Z,2.13
2018-11-01T11:39:02.730Z,3.06
2018-11-01T11:44:57.599Z,3.52
2018-11-01T11:50:52.622Z,3.88
2018-11-01T11:56:47.612Z,4.51
2018-11-01T12:02:42.603Z,4.23
2018-11-01T12:08:37.625Z,5.28
2018-11-01T12:14:32.627Z,4.8
2018-11-01T12:20:27.634Z,5.93
2018-11-01T12:26:23.282Z,4.49
2018-11-01T12:32:17.697Z,5.19
2018-11-01T12:38:12.664Z,7.13
2018-11-01T12:44:07.658Z,8.08
2018-11-01T12:50:02.809Z,5.57
2018-11-01T12:55:57.644Z,5.48
2018-11-01T13:01:52.663Z,5.69
2018-11-01T13:07:47.666Z,6.41
2018-11-01T13:13:42.677Z,5.44
2018-11-01T13:19:37.678Z,5.51
2018-11-01T13:25:32.710Z,5.84
2018-11-01T13:31:27.678Z,5.69
2018-11-01T13:37:22.698Z,4.44
2018-11-01T13:43:17.693Z,4
2018-11-01T13:49:12.691Z,3.48
2018-11-01T13:55:07.757Z,3.17
2018-11-01T14:01:02.703Z,3.18
2018-11-01T14:06:57.702Z,3.61
2018-11-01T14:12:52.779Z,3.07
2018-11-01T14:18:47.783Z,2.65
2018-11-01T14:24:42.738Z,2.96
2018-11-01T14:30:37.764Z,3.17
2018-11-01T14:36:32.751Z,2.88
2018-11-01T14:42:27.771Z,2.93
2018-11-01T14:48:22.749Z,2.53
2018-11-01T14:54:18.875Z,3.15
2018-11-01T15:00:12.753Z,2.83
2018-11-01T15:06:07.746Z,3.34
2018-11-01T15:12:02.753Z,4.74
2018-11-01T15:17:57.808Z,3.23
2018-11-01T15:23:52.754Z,3.53
2018-11-01T15:29:47.824Z,3.63
2018-11-01T15:35:42.767Z,5.67
2018-11-01T15:41:37.813Z,4.2
2018-11-01T15:47:32.847Z,4.01
2018-11-01T15:53:27.788Z,3.77
2018-11-01T15:59:22.837Z,3.27
2018-11-01T16:05:17.821Z,3.88
2018-11-01T16:11:12.784Z,4.53
2018-11-01T16:17:07.840Z,4.26
2018-11-01T16:23:02.800Z,4.87
2018-11-01T16:28:57.841Z,7.22
2018-11-01T16:34:52.833Z,7.03
2018-11-01T16:40:47.831Z,8.71
2018-11-01T16:46:42.818Z,5.39
2018-11-01T16:52:37.844Z,4.04
2018-11-01T16:58:32.850Z,4.36
2018-11-01T17:04:27.845Z,6.46
2018-11-01T17:10:22.830Z,4.97
2018-11-01T17:16:17.866Z,4.12
2018-11-01T17:22:12.836Z,4.88
2018-11-01T17:28:07.908Z,3.71
2018-11-01T17:34:02.935Z,5.3
2018-11-01T17:39:57.852Z,5.7
2018-11-01T17:45:52.870Z,5.44
2018-11-01T17:51:47.867Z,7.74
2018-11-01T17:57:42.874Z,5.08
2018-11-01T18:03:37.877Z,4.22
2018-11-01T18:09:32.850Z,4.2
2018-11-01T18:15:27.876Z,3.6
2018-11-01T18:21:22.869Z,5.62
2018-11-01T18:27:17.901Z,4.79
2018-11-01T18:33:12.977Z,6.25
2018-11-01T18:39:07.941Z,5.73
2018-11-01T18:45:02.905Z,6.27
2018-11-01T18:50:57.914Z,5.78
2018-11-01T18:56:52.920Z,8.95
2018-11-01T19:02:47.912Z,8
2018-11-01T19:08:42.923Z,7.48
2018-11-01T19:14:38.102Z,5.59
2018-11-01T19:20:32.952Z,4.23
2018-11-01T19:26:27.904Z,8.08
2018-11-01T19:32:22.920Z,5.51
2018-11-01T19:38:17.951Z,9.14
2018-11-01T19:44:12.941Z,3.77
2018-11-01T19:50:07.972Z,4.7
2018-11-01T19:56:02.960Z,4.18
2018-11-01T20:01:57.947Z,4.39
2018-11-01T20:07:52.939Z,5.63
2018-11-01T20:13:47.966Z,4.16
2018-11-01T20:19:43.042Z,5.46
2018-11-01T20:25:38.067Z,4.53
2018-11-01T20:31:32.990Z,10.6
2018-11-01T20:37:27.974Z,7.77
2018-11-01T20:43:23.111Z,7.52
2018-11-01T20:49:17.992Z,6.12
2018-11-01T20:55:12.986Z,8.73
2018-11-01T21:01:08.011Z,14.38
2018-11-01T21:07:02.991Z,7.45
2018-11-01T21:12:57.999Z,9.55
2018-11-01T21:18:52.988Z,15.13
2018-11-01T21:24:47.999Z,13.01
2018-11-01T21:30:42.995Z,10.15
2018-11-01T21:36:38.010Z,8.22
2018-11-01T21:42:32.999Z,4.88
2018-11-01T21:48:28.014Z,7.02
2018-11-01T21:54:23.029Z,11.6
2018-11-01T22:00:18.018Z,7.03
2018-11-01T22:06:13.024Z,13.2
2018-11-01T22:12:08.030Z,13.64
2018-11-01T22:18:03.033Z,16.53
2018-11-01T22:23:58.052Z,15.08
2018-11-01T22:29:53.065Z,12.81
2018-11-01T22:35:48.047Z,12.33
2018-11-01T22:41:43.076Z,15.48
2018-11-01T22:47:38.060Z,13.66
2018-11-01T22:53:33.089Z,12.38
2018-11-01T22:59:28.110Z,10.17
2018-11-01T23:05:23.130Z,11.86
2018-11-01T23:11:18.084Z,11.57
2018-11-01T23:17:13.054Z,9.91
2018-11-01T23:23:08.139Z,8.44
2018-11-01T23:29:03.101Z,7.4
2018-11-01T23:34:58.077Z,8.17
2018-11-01T23:40:53.098Z,8.85
2018-11-01T23:46:48.113Z,11.62
2018-11-01T23:52:43.090Z,10.63
2018-11-01T23:58:38.093Z,16.63
